CYTZ METAR and TAF weather

Enter ICAO airport designator

Example: see airport list

Station Type Date Time Source
CYTZ METAR 2016/06/29 07:00 UTC NOAA

CYTZ 290700Z AUTO 34008KT 9SM BKN044 OVC050 17/11 A2995 RMK SLP142 DENSITY ALT 500FT

Station Type Date Time Source
CYTZ Decoded METAR 2016/06/29 07:00 UTC NOAA

Toronto Island Airport Automated Reporting Station, Canada (CYTZ) 43-38N 079-24W
Jun 29, 2016 - 03:00 AM EDT / 2016.06.29 0700 UTC
Wind: from the NNW (340 degrees) at 9 MPH (8 KT):0
Visibility: 9 mile(s):0
Sky conditions: overcast
Temperature: 62 F (17 C)
Dew Point: 51 F (11 C)
Relative Humidity: 67%
Pressure (altimeter): 29.95 in. Hg (1014 hPa)
ob: CYTZ 290700Z AUTO 34008KT 9SM BKN044 OVC050 17/11 A2995 RMK SLP142 DENSITY ALT 500FT
cycle: 7

Station Type Date Time Source
CYTZ TAF 2016/06/29 02:44 UTC NOAA

TAF CYTZ 290140Z 2902/3002 33010KT P6SM BKN060
FM291900 28010KT P6SM SCT070
FM300000 33006KT P6SM SKC
RMK FCST BASED ON AUTO OBS. NXT FCST BY 290800Z